Etusivu
METAR-TAF:

METAR-TAF

Lentoasemat :

Milford Municipal Airport (Ben and Judy Briscoe Field)

Milford, Utah, Yhdysvallat

Leveyspiiri: 38-25-21N, Pituuspiiri: 113-00-35W, korkeus merenpinnasta: 1536 m

Tämänhetkinen sää

Tämä raportti tehtiin 35 minuuttia sitten, kello 14.52 UTC
Tuuli 3 kn lounaasta
Lämpötila 6°C
Kosteus 75%
Ilmanpaine 1004 hPa
Näkyvyys: 16.1 km
Hajanaisia pilviä 2700 ft:n korkeudessa
Pilvistä 8000 ft:n korkeudessa

METAR: KMLF 221452Z AUTO 23003KT 10SM SCT027 OVC080 06/02 A2965 RMK AO2 SLP025 T00610022 51008

Aika: 09:27 (15:27 UTC)


TAF: puuttuu

Säähavainnot ja -ennusteet yli 4000 lentoasemalta (METAR- ja TAF-raportit).

Käytössä olevat sääasemat on merkitty karttaan keltaisilla ja punaisilla pisteillä.

Aseta hiiri pisteen päälle nähdäksesi sääaseman nimen.

Klikkaa sitten nähdäksesi säähavainnot ja -ennusteet.

Kartan vaihtaminen: klikkaa mustalla rastilla varustettuja vihreitä pisteitä, niin voit zoomata sisään; viivalla varustettua vihreää pistettä, niin voit zoomata ulos tai vihreitä nuolia, niin pääset viereisille kartoille.


METAR-TAF: